Errachidia, Morocco
Current Conditions -  °F | °C
As of 1:00 PM on Thursday 30 Oct 2014 (Local Time) from GMFK Reporting Station
Few Clouds Few Clouds  
Wind Chill: 75°   Ceiling: Unl
Heat Index: 75°   Visibility: 6mi
Dew Point: 37°   Wind: 7mph
Humidity: 25%   Direction: 260°W
Pressure: 30.24"   Gusts: NA
Location:  31.94°N, 4.45°W
Report Text: GMFK 301200Z 26006KT 190V340 9999 FEW026 24/03 Q1024 NOSIG
Loading
Personal Weather Stations






























Interactive Weather Map
Tropical Storm Tracking
New forecast layout! Learn more

10-Day Weather Forecast

Advertisements
Track Severe Weather on mobile